Station Historical Data
Daily Summary for September 1, 2017 Units:  Metric    English   Both
« Previous Day
Next Day »
Daily Weekly Monthly Yearly Custom
  High: Low: Average:
Temperature: 17.4 °C 6.4 °C 12.4 °C
Dew Point: 8.7 °C 4.3 °C 6.3 °C
Humidity: 87% 48% 68%
Wind Speed: 14.5km/h 0km/h 2.3km/h
Wind Gust: 22.5km/h - -
Wind- - ESE
Pressure: 1024.6 hPa 1021.6 hPa -
Precipitation: 0 mm    
Historical Graphs
 
 
Tabular Data for September 1, 2017
Time Temperature Dew Point Pressure Wind Wind Speed Wind Gust Humidity Rainfall Rate (Hourly)
00:04 11.3 °C 6.4 °C 1021.6 hPa North 1.6 km/h 8 km/h 72% 0 mm
00:09 11.2 °C 6.5 °C 1021.6 hPa Calm   4.8 km/h 73% 0 mm
00:14 11.1 °C 6.4 °C 1021.6 hPa Calm   4.8 km/h 73% 0 mm
00:19 11.1 °C 6.4 °C 1021.6 hPa Calm   4.8 km/h 73% 0 mm
00:24 11.1 °C 6.4 °C 1021.6 hPa Calm   4.8 km/h 73% 0 mm
00:29 11.1 °C 6.4 °C 1021.9 hPa Calm   6.4 km/h 73% 0 mm
00:34 10.9 °C 6.3 °C 1021.9 hPa Calm     73% 0 mm
00:39 10.8 °C 6.4 °C 1021.9 hPa Calm     74% 0 mm
00:44 10.8 °C 6.3 °C 1021.9 hPa Calm     74% 0 mm
00:49 10.7 °C 6.3 °C 1021.9 hPa NNW 3.2 km/h 4.8 km/h 74% 0 mm
00:54 10.6 °C 6.1 °C 1021.9 hPa Calm   3.2 km/h 74% 0 mm
00:59 10.4 °C 6.2 °C 1021.9 hPa Calm   3.2 km/h 75% 0 mm
01:04 10.4 °C 6.2 °C 1021.9 hPa Calm     75% 0 mm
01:09 10.4 °C 6.2 °C 1021.9 hPa Calm     75% 0 mm
01:14 10.2 °C 6 °C 1021.9 hPa Calm     75% 0 mm
01:19 10.1 °C 6.1 °C 1021.9 hPa Calm     76% 0 mm
01:24 10.1 °C 6.1 °C 1021.9 hPa Calm     76% 0 mm
01:29 10.1 °C 6.1 °C 1021.9 hPa Calm     76% 0 mm
01:34 9.9 °C 5.9 °C 1021.9 hPa Calm     76% 0 mm
01:39 9.8 °C 5.7 °C 1021.9 hPa Calm     76% 0 mm
01:44 9.8 °C 5.7 °C 1021.9 hPa Calm     76% 0 mm
01:54 9.6 °C 5.8 °C 1021.9 hPa Calm     77% 0 mm
01:59 9.6 °C 5.7 °C 1021.9 hPa Calm     77% 0 mm
02:04 9.5 °C 5.7 °C 1021.9 hPa Calm     77% 0 mm
02:09 9.3 °C 5.5 °C 1021.9 hPa Calm     77% 0 mm
02:14 9.2 °C 5.4 °C 1021.9 hPa Calm     77% 0 mm
02:19 9.1 °C 5.4 °C 1021.9 hPa Calm     78% 0 mm
02:24 9.1 °C 5.2 °C 1021.9 hPa Calm     77% 0 mm
02:29 9 °C 5.4 °C 1021.9 hPa Calm     78% 0 mm
02:34 8.9 °C 5.3 °C 1021.9 hPa Calm     78% 0 mm
02:39 8.8 °C 5.2 °C 1021.9 hPa Calm     78% 0 mm
02:44 8.8 °C 5.2 °C 1021.9 hPa Calm     78% 0 mm
02:49 8.7 °C 5.2 °C 1021.9 hPa Calm     79% 0 mm
02:54 8.7 °C 5.2 °C 1021.9 hPa Calm     79% 0 mm
02:59 8.7 °C 5.2 °C 1021.9 hPa Calm     79% 0 mm
03:04 8.6 °C 5.1 °C 1021.9 hPa Calm     79% 0 mm
03:09 8.6 °C 5.1 °C 1021.9 hPa Calm     79% 0 mm
03:14 8.5 °C 5.1 °C 1021.9 hPa Calm     79% 0 mm
03:19 8.3 °C 4.9 °C 1021.9 hPa Calm     79% 0 mm
03:24 8.3 °C 4.9 °C 1021.9 hPa Calm     79% 0 mm
03:29 8.3 °C 4.9 °C 1021.9 hPa Calm     79% 0 mm
03:34 8.3 °C 5.1 °C 1021.9 hPa Calm     80% 0 mm
03:44 8.3 °C 5.1 °C 1021.9 hPa Calm     80% 0 mm
03:49 8.2 °C 5 °C 1021.9 hPa Calm     80% 0 mm
03:54 8.2 °C 4.9 °C 1022.2 hPa Calm     80% 0 mm
03:59 8.1 °C 4.9 °C 1022.2 hPa Calm     80% 0 mm
04:04 8.1 °C 5 °C 1022.2 hPa Calm     81% 0 mm
04:09 7.9 °C 4.7 °C 1022.2 hPa Calm     80% 0 mm
04:14 7.8 °C 4.7 °C 1022.2 hPa Calm     81% 0 mm
04:19 7.8 °C 4.7 °C 1022.6 hPa Calm     81% 0 mm
04:24 7.8 °C 4.9 °C 1022.6 hPa Calm     82% 0 mm
04:29 7.6 °C 4.7 °C 1022.6 hPa Calm     82% 0 mm
04:34 7.4 °C 4.7 °C 1022.6 hPa Calm     83% 0 mm
04:39 7.2 °C 4.5 °C 1022.9 hPa Calm     83% 0 mm
04:44 7.2 °C 4.4 °C 1022.9 hPa Calm     83% 0 mm
04:49 7.1 °C 4.6 °C 1022.9 hPa Calm     84% 0 mm
04:54 6.9 °C 4.4 °C 1022.9 hPa Calm     84% 0 mm
04:59 6.9 °C 4.4 °C 1022.9 hPa Calm     84% 0 mm
05:04 6.8 °C 4.3 °C 1022.9 hPa Calm     84% 0 mm
05:09 6.8 °C 4.3 °C 1022.9 hPa Calm     84% 0 mm
05:14 6.8 °C 4.4 °C 1022.9 hPa Calm     85% 0 mm
05:19 6.8 °C 4.4 °C 1022.9 hPa Calm     85% 0 mm
05:24 6.9 °C 4.6 °C 1022.9 hPa Calm     85% 0 mm
05:29 6.9 °C 4.6 °C 1022.9 hPa Calm     85% 0 mm
05:34 6.8 °C 4.5 °C 1022.9 hPa Calm     85% 0 mm
05:39 6.8 °C 4.4 °C 1022.9 hPa Calm     85% 0 mm
05:44 6.8 °C 4.4 °C 1022.9 hPa Calm     85% 0 mm
05:49 6.8 °C 4.4 °C 1022.9 hPa Calm     85% 0 mm
05:54 6.7 °C 4.6 °C 1023.2 hPa Calm     86% 0 mm
05:59 6.6 °C 4.4 °C 1023.6 hPa Calm     86% 0 mm
06:04 6.5 °C 4.3 °C 1023.2 hPa Calm     86% 0 mm
06:09 6.4 °C 4.4 °C 1023.2 hPa Calm     87% 0 mm
06:14 6.6 °C 4.6 °C 1023.2 hPa Calm     87% 0 mm
06:19 6.4 °C 4.4 °C 1023.6 hPa Calm     87% 0 mm
06:24 6.5 °C 4.5 °C 1023.2 hPa Calm     87% 0 mm
06:29 6.4 °C 4.3 °C 1023.2 hPa Calm     86% 0 mm
06:34 6.6 °C 4.6 °C 1023.6 hPa Calm     87% 0 mm
06:39 6.6 °C 4.6 °C 1023.6 hPa Calm     87% 0 mm
06:44 6.7 °C 4.7 °C 1023.6 hPa Calm     87% 0 mm
06:49 6.6 °C 4.6 °C 1023.6 hPa Calm     87% 0 mm
06:54 6.7 °C 4.7 °C 1023.6 hPa Calm     87% 0 mm
06:59 6.7 °C 4.7 °C 1023.2 hPa Calm     87% 0 mm
07:04 6.9 °C 4.9 °C 1023.6 hPa Calm     87% 0 mm
07:09 7 °C 5 °C 1023.6 hPa Calm     87% 0 mm
07:14 7.3 °C 5.3 °C 1023.6 hPa Calm     87% 0 mm
07:19 7.4 °C 5.4 °C 1023.6 hPa Calm     87% 0 mm
07:24 7.7 °C 5.5 °C 1023.6 hPa Calm     86% 0 mm
07:29 8 °C 5.8 °C 1023.9 hPa Calm     86% 0 mm
07:34 8.3 °C 5.9 °C 1023.9 hPa Calm     85% 0 mm
07:39 8.6 °C 6.2 °C 1023.6 hPa Calm     85% 0 mm
07:44 8.9 °C 6.4 °C 1023.9 hPa Calm   1.6 km/h 84% 0 mm
07:49 9.4 °C 6.7 °C 1023.9 hPa Calm     83% 0 mm
07:54 9.7 °C 6.6 °C 1023.9 hPa Calm     81% 0 mm
07:59 9.9 °C 6.7 °C 1023.9 hPa Calm     80% 0 mm
08:04 10.1 °C 6.6 °C 1023.9 hPa Calm     79% 0 mm
08:09 10.1 °C 6.8 °C 1023.9 hPa Calm     80% 0 mm
08:14 10.2 °C 6.9 °C 1023.9 hPa Calm     80% 0 mm
08:19 10.4 °C 6.7 °C 1023.9 hPa Calm     78% 0 mm
08:24 10.8 °C 7.3 °C 1024.3 hPa Calm     79% 0 mm
08:29 11.2 °C 7.5 °C 1024.3 hPa Calm   1.6 km/h 78% 0 mm
08:34 11.6 °C 7.4 °C 1024.3 hPa Calm   3.2 km/h 76% 0 mm
08:39 11.6 °C 7.1 °C 1024.3 hPa North 1.6 km/h 4.8 km/h 74% 0 mm
08:44 11.7 °C 7.2 °C 1024.3 hPa NE 1.6 km/h 6.4 km/h 74% 0 mm
08:49 11.8 °C 7.3 °C 1024.3 hPa NNE 1.6 km/h 9.7 km/h 74% 0 mm
08:54 11.8 °C 6.9 °C 1024.3 hPa NE 3.2 km/h 9.7 km/h 72% 0 mm
08:59 12.1 °C 7.6 °C 1024.3 hPa ENE 3.2 km/h 6.4 km/h 74% 0 mm
09:04 12.2 °C 7.3 °C 1024.3 hPa NE 3.2 km/h 11.3 km/h 72% 0 mm
09:09 12.4 °C 7.3 °C 1024.3 hPa NE 4.8 km/h 14.5 km/h 71% 0 mm
09:14 12.8 °C 7.5 °C 1024.3 hPa NE 6.4 km/h 14.5 km/h 70% 0 mm
09:19 13 °C 7.4 °C 1024.6 hPa ENE 6.4 km/h 12.9 km/h 69% 0 mm
09:24 13.3 °C 7.6 °C 1024.6 hPa NE 6.4 km/h 12.9 km/h 68% 0 mm
09:29 13.5 °C 7.3 °C 1024.6 hPa NE 4.8 km/h 16.1 km/h 66% 0 mm
09:34 13.4 °C 7.2 °C 1024.6 hPa NE 6.4 km/h 16.1 km/h 66% 0 mm
09:39 13.7 °C 7.9 °C 1024.6 hPa NE 4.8 km/h 12.9 km/h 68% 0 mm
09:44 13.8 °C 7.3 °C 1024.6 hPa NE 4.8 km/h 12.9 km/h 65% 0 mm
09:49 13.5 °C 7.1 °C 1024.6 hPa ENE 12.9 km/h 16.1 km/h 65% 0 mm
09:54 13.7 °C 7.4 °C 1024.6 hPa NE 6.4 km/h 16.1 km/h 66% 0 mm
09:59 14.2 °C 7.9 °C 1024.6 hPa NE 3.2 km/h 12.9 km/h 66% 0 mm
10:04 14.3 °C 7.8 °C 1024.6 hPa NNE 4.8 km/h 14.5 km/h 65% 0 mm
10:09 14.5 °C 7.8 °C 1024.6 hPa NE 8 km/h 14.5 km/h 64% 0 mm
10:14 14.8 °C 8.5 °C 1024.6 hPa NNE 4.8 km/h 14.5 km/h 66% 0 mm
10:19 14.4 °C 7.2 °C 1024.6 hPa NE 6.4 km/h 19.3 km/h 62% 0 mm
10:24 14.6 °C 7.6 °C 1024.6 hPa NE 8 km/h 19.3 km/h 63% 0 mm
10:29 14.4 °C 7.4 °C 1024.6 hPa NE 4.8 km/h 16.1 km/h 63% 0 mm
10:34 14.4 °C 7.4 °C 1024.3 hPa NE 8 km/h 19.3 km/h 63% 0 mm
10:39 14.6 °C 7.9 °C 1024.3 hPa ENE 9.7 km/h 19.3 km/h 64% 0 mm
10:44 15.3 °C 8.7 °C 1024.3 hPa East 8 km/h 11.3 km/h 65% 0 mm
10:49 15.5 °C 7.5 °C 1024.3 hPa NE 9.7 km/h 16.1 km/h 59% 0 mm
10:54 15.7 °C 7.7 °C 1024.3 hPa NW 3.2 km/h 12.9 km/h 59% 0 mm
10:59 15.4 °C 7.2 °C 1024.3 hPa NE 3.2 km/h 12.9 km/h 58% 0 mm
11:04 15.4 °C 7.2 °C 1024.3 hPa NNE 4.8 km/h 17.7 km/h 58% 0 mm
11:09 15.2 °C 7.4 °C 1024.3 hPa NNE 4.8 km/h 17.7 km/h 60% 0 mm
11:14 15.3 °C 7.6 °C 1024.3 hPa NNE 4.8 km/h 11.3 km/h 60% 0 mm
11:19 15.9 °C 7.9 °C 1024.3 hPa North 4.8 km/h 14.5 km/h 59% 0 mm
11:24 15.8 °C 6.8 °C 1024.3 hPa NNE 6.4 km/h 17.7 km/h 55% 0 mm
11:29 15.7 °C 6.9 °C 1024.3 hPa ENE 14.5 km/h 19.3 km/h 56% 0 mm
11:34 15.5 °C 5.4 °C 1024.3 hPa NE 6.4 km/h 20.9 km/h 51% 0 mm
11:39 15.8 °C 7.6 °C 1024.3 hPa NW 9.7 km/h 16.1 km/h 58% 0 mm
11:44 16.1 °C 5.9 °C 1024.3 hPa NE 6.4 km/h 17.7 km/h 51% 0 mm
11:49 16.3 °C 7.6 °C 1024.3 hPa NNE 4.8 km/h 17.7 km/h 56% 0 mm
11:54 16.3 °C 6.7 °C 1024.3 hPa East 3.2 km/h 16.1 km/h 53% 0 mm
11:59 16.3 °C 7.5 °C 1023.9 hPa ENE 6.4 km/h 17.7 km/h 56% 0 mm
12:04 16.3 °C 7.3 °C 1024.3 hPa North 4.8 km/h 22.5 km/h 55% 0 mm
12:09 16.6 °C 6.9 °C 1023.9 hPa NE 4.8 km/h 14.5 km/h 53% 0 mm
12:14 16.7 °C 7.9 °C 1023.9 hPa NE 4.8 km/h 14.5 km/h 56% 0 mm
12:19 16.6 °C 6.1 °C 1023.9 hPa NE 4.8 km/h 12.9 km/h 50% 0 mm
12:24 16.3 °C 6.7 °C 1023.9 hPa NE 4.8 km/h 12.9 km/h 53% 0 mm
12:29 16.2 °C 6.3 °C 1023.9 hPa NNW 1.6 km/h 6.4 km/h 52% 0 mm
12:34 16.3 °C 7.2 °C 1023.9 hPa NE 4.8 km/h 12.9 km/h 55% 0 mm
12:39 16.6 °C 7.7 °C 1023.6 hPa NE 3.2 km/h 8 km/h 56% 0 mm
12:44 16.7 °C 7.3 °C 1023.6 hPa NNE 4.8 km/h 12.9 km/h 54% 0 mm
12:49 16.2 °C 7.2 °C 1023.6 hPa NNW 4.8 km/h 12.9 km/h 55% 0 mm
12:54 16.3 °C 7.2 °C 1023.2 hPa ENE 8 km/h 16.1 km/h 55% 0 mm
12:59 16.3 °C 7.5 °C 1023.2 hPa North 3.2 km/h 16.1 km/h 56% 0 mm
13:04 16.4 °C 6.6 °C 1023.2 hPa NNE 4.8 km/h 6.4 km/h 52% 0 mm
13:09 16.6 °C 7.5 °C 1023.2 hPa North 3.2 km/h 6.4 km/h 55% 0 mm
13:14 16.6 °C 7.5 °C 1023.2 hPa NNE 3.2 km/h 14.5 km/h 55% 0 mm
13:19 16.6 °C 7.5 °C 1023.2 hPa NE 4.8 km/h 14.5 km/h 55% 0 mm
13:24 16.9 °C 8.6 °C 1023.2 hPa NNE 4.8 km/h 12.9 km/h 58% 0 mm
13:29 16.7 °C 6.5 °C 1023.6 hPa ENE 6.4 km/h 8 km/h 51% 0 mm
13:34 16.6 °C 6.7 °C 1023.2 hPa NE 3.2 km/h 12.9 km/h 52% 0 mm
13:39 16.7 °C 6.8 °C 1023.2 hPa NE 8 km/h 16.1 km/h 52% 0 mm
13:44 16.8 °C 7.2 °C 1023.2 hPa NE 3.2 km/h 11.3 km/h 53% 0 mm
13:49 16.7 °C 5.9 °C 1023.2 hPa NE 4.8 km/h 11.3 km/h 49% 0 mm
13:54 16.6 °C 6.1 °C 1023.2 hPa NE 4.8 km/h 14.5 km/h 50% 0 mm
13:59 16.7 °C 6.5 °C 1023.2 hPa NE 4.8 km/h 14.5 km/h 51% 0 mm
14:04 17 °C 7.3 °C 1023.6 hPa NE 3.2 km/h 12.9 km/h 53% 0 mm
14:09 17.3 °C 8.4 °C 1023.6 hPa NE 4.8 km/h 11.3 km/h 56% 0 mm
14:14 17 °C 7.1 °C 1023.6 hPa WNW 4.8 km/h 12.9 km/h 52% 0 mm
14:19 17.3 °C 7.4 °C 1023.6 hPa North 4.8 km/h 12.9 km/h 52% 0 mm
14:24 17.4 °C 6.9 °C 1023.6 hPa NW 4.8 km/h 9.7 km/h 50% 0 mm
14:29 17.3 °C 7.6 °C 1023.6 hPa NNE 8 km/h 12.9 km/h 53% 0 mm
14:34 17 °C 6.8 °C 1023.6 hPa NE 4.8 km/h 11.3 km/h 51% 0 mm
14:39 17 °C 6.2 °C 1023.2 hPa NE 1.6 km/h 12.9 km/h 49% 0 mm
14:44 17.3 °C 7.1 °C 1023.2 hPa NNW 11.3 km/h 11.3 km/h 51% 0 mm
14:49 16.9 °C 6.4 °C 1023.2 hPa North 4.8 km/h 14.5 km/h 50% 0 mm
14:54 16.8 °C 6.3 °C 1023.2 hPa NNW 6.4 km/h 14.5 km/h 50% 0 mm
14:59 16.9 °C 6.9 °C 1023.2 hPa NNW 4.8 km/h 11.3 km/h 52% 0 mm
15:04 16.9 °C 6.7 °C 1023.2 hPa NNW 3.2 km/h 11.3 km/h 51% 0 mm
15:09 17.2 °C 6.7 °C 1022.9 hPa North 3.2 km/h 9.7 km/h 50% 0 mm
15:14 17.3 °C 7.1 °C 1022.9 hPa North 6.4 km/h 14.5 km/h 51% 0 mm
15:19 17 °C 6.8 °C 1022.9 hPa NE 6.4 km/h 12.9 km/h 51% 0 mm
15:24 16.8 °C 6.1 °C 1022.9 hPa NNE 4.8 km/h 12.9 km/h 49% 0 mm
15:29 16.7 °C 6.8 °C 1022.9 hPa NNW 4.8 km/h 12.9 km/h 52% 0 mm
15:34 17.2 °C 6.9 °C 1022.9 hPa NE 1.6 km/h 8 km/h 51% 0 mm
15:39 17.4 °C 6.8 °C 1022.9 hPa North 9.7 km/h 9.7 km/h 50% 0 mm
15:44 17.2 °C 7.2 °C 1022.9 hPa NNW 3.2 km/h 9.7 km/h 52% 0 mm
15:49 17.1 °C 7.7 °C 1022.9 hPa NNE 3.2 km/h 11.3 km/h 54% 0 mm
15:54 16.8 °C 7.2 °C 1022.6 hPa NE 4.8 km/h 14.5 km/h 53% 0 mm
15:59 16.5 °C 6.6 °C 1022.6 hPa NNE 6.4 km/h 14.5 km/h 52% 0 mm
16:04 16.4 °C 7.1 °C 1022.6 hPa NNW 6.4 km/h 16.1 km/h 54% 0 mm
16:09 16.7 °C 7.3 °C 1022.6 hPa NNW 4.8 km/h 16.1 km/h 54% 0 mm
16:14 16.7 °C 7.8 °C 1022.6 hPa North 4.8 km/h 12.9 km/h 56% 0 mm
16:19 16.3 °C 7.2 °C 1022.6 hPa NW 8 km/h 12.9 km/h 55% 0 mm
16:24 16.6 °C 7 °C 1022.6 hPa NE 3.2 km/h 11.3 km/h 53% 0 mm
16:29 16.6 °C 6.7 °C 1022.6 hPa NE 4.8 km/h 14.5 km/h 52% 0 mm
16:34 16.3 °C 7 °C 1022.6 hPa NNW 1.6 km/h 11.3 km/h 54% 0 mm
16:39 16.5 °C 7.2 °C 1022.6 hPa NNE 4.8 km/h 11.3 km/h 54% 0 mm
16:44 16.4 °C 7.4 °C 1022.6 hPa NNE 3.2 km/h 11.3 km/h 55% 0 mm
16:49 16.2 °C 6.9 °C 1022.6 hPa Calm   9.7 km/h 54% 0 mm
16:54 16.1 °C 7 °C 1022.6 hPa NNW 6.4 km/h 6.4 km/h 55% 0 mm
16:59 15.8 °C 6.3 °C 1022.6 hPa North 3.2 km/h 11.3 km/h 53% 0 mm
17:04 15.7 °C 6.2 °C 1022.6 hPa North 4.8 km/h 11.3 km/h 53% 0 mm
17:09 15.8 °C 6.8 °C 1022.6 hPa NE 4.8 km/h 11.3 km/h 55% 0 mm
17:14 15.6 °C 6.3 °C 1022.6 hPa North 4.8 km/h 12.9 km/h 54% 0 mm
17:19 15.6 °C 6.6 °C 1022.6 hPa NNE 3.2 km/h 8 km/h 55% 0 mm
17:24 15.7 °C 6.7 °C 1022.6 hPa NNE 3.2 km/h 8 km/h 55% 0 mm
17:29 15.5 °C 6.5 °C 1022.6 hPa NNE 3.2 km/h 16.1 km/h 55% 0 mm
17:34 15.5 °C 6.2 °C 1022.6 hPa NE 6.4 km/h 16.1 km/h 54% 0 mm
17:39 15.5 °C 6.8 °C 1022.6 hPa NE 4.8 km/h 14.5 km/h 56% 0 mm
17:44 15.4 °C 6.4 °C 1022.2 hPa NE 1.6 km/h 12.9 km/h 55% 0 mm
17:49 15.3 °C 5.7 °C 1022.2 hPa Calm   4.8 km/h 53% 0 mm
17:54 15.2 °C 4.3 °C 1022.2 hPa ENE 8 km/h 11.3 km/h 48% 0 mm
17:59 15.1 °C 4.4 °C 1022.2 hPa NE 4.8 km/h 11.3 km/h 49% 0 mm
18:04 15.1 °C 5 °C 1022.6 hPa ENE 4.8 km/h 11.3 km/h 51% 0 mm
18:09 15.1 °C 5.3 °C 1022.6 hPa NE 3.2 km/h 9.7 km/h 52% 0 mm
18:14 15.1 °C 5.3 °C 1022.2 hPa Calm   8 km/h 52% 0 mm
18:19 15 °C 5.2 °C 1022.6 hPa ENE 8 km/h 9.7 km/h 52% 0 mm
18:24 14.9 °C 5.7 °C 1022.2 hPa NE 3.2 km/h 11.3 km/h 54% 0 mm
18:29 14.9 °C 5.9 °C 1022.2 hPa NE 3.2 km/h 9.7 km/h 55% 0 mm
18:34 14.8 °C 5.6 °C 1022.2 hPa NE 4.8 km/h 11.3 km/h 54% 0 mm
18:39 14.8 °C 5.8 °C 1021.9 hPa NE 4.8 km/h 11.3 km/h 55% 0 mm
18:44 14.8 °C 5.3 °C 1021.9 hPa NE 4.8 km/h 9.7 km/h 53% 0 mm
18:49 14.7 °C 5.4 °C 1021.9 hPa NE 4.8 km/h 11.3 km/h 54% 0 mm
18:54 14.6 °C 6.1 °C 1021.9 hPa ENE 3.2 km/h 11.3 km/h 57% 0 mm
18:59 14.5 °C 5.8 °C 1021.9 hPa NE 8 km/h 11.3 km/h 56% 0 mm
19:04 14.4 °C 6.3 °C 1021.6 hPa ENE 4.8 km/h 9.7 km/h 58% 0 mm
19:09 14.3 °C 6.2 °C 1021.6 hPa East 1.6 km/h 4.8 km/h 58% 0 mm
19:14 14.2 °C 6.1 °C 1021.9 hPa Calm   4.8 km/h 58% 0 mm
19:19 14.2 °C 6.1 °C 1021.9 hPa Calm   4.8 km/h 58% 0 mm
19:24 14.1 °C 6.2 °C 1021.9 hPa Calm     59% 0 mm
19:29 13.9 °C 6.3 °C 1021.9 hPa Calm   3.2 km/h 60% 0 mm
19:34 13.8 °C 6.2 °C 1021.9 hPa Calm   4.8 km/h 60% 0 mm
19:39 13.8 °C 6.2 °C 1021.9 hPa Calm   4.8 km/h 60% 0 mm
19:44 13.6 °C 6 °C 1021.9 hPa Calm     60% 0 mm
19:49 13.6 °C 5.9 °C 1021.9 hPa Calm   3.2 km/h 60% 0 mm
19:54 13.5 °C 5.9 °C 1022.2 hPa Calm   3.2 km/h 60% 0 mm
19:59 13.4 °C 6.1 °C 1021.9 hPa Calm   1.6 km/h 61% 0 mm
20:04 13.3 °C 5.9 °C 1021.9 hPa Calm     61% 0 mm
20:09 13.3 °C 5.9 °C 1021.9 hPa Calm     61% 0 mm
20:14 13.2 °C 6.1 °C 1021.9 hPa Calm     62% 0 mm
20:19 13.2 °C 6.3 °C 1021.9 hPa Calm     63% 0 mm
20:24 13.2 °C 6.3 °C 1022.2 hPa Calm     63% 0 mm
20:29 12.9 °C 6.3 °C 1022.2 hPa Calm     64% 0 mm
20:34 12.8 °C 6.3 °C 1022.2 hPa Calm     65% 0 mm
20:39 12.8 °C 6.3 °C 1022.2 hPa Calm     65% 0 mm
20:44 12.9 °C 6.4 °C 1022.2 hPa Calm     65% 0 mm
20:49 12.8 °C 6.3 °C 1022.2 hPa Calm     65% 0 mm
20:54 12.7 °C 6.5 °C 1022.2 hPa Calm     66% 0 mm
20:59 12.6 °C 6.4 °C 1022.2 hPa Calm     66% 0 mm
21:04 12.4 °C 6.3 °C 1022.2 hPa Calm     66% 0 mm
21:09 12.4 °C 6.5 °C 1022.2 hPa Calm     67% 0 mm
21:14 12.4 °C 6.3 °C 1022.2 hPa Calm     66% 0 mm
21:19 12.5 °C 6.3 °C 1022.2 hPa Calm     66% 0 mm
21:24 12.4 °C 6.4 °C 1022.2 hPa Calm     67% 0 mm
21:29 12.3 °C 6.6 °C 1022.6 hPa Calm     68% 0 mm
21:34 12.2 °C 6.4 °C 1022.2 hPa Calm     68% 0 mm
21:39 11.8 °C 6.6 °C 1022.6 hPa Calm     70% 0 mm
21:44 11.6 °C 6.5 °C 1022.2 hPa Calm     71% 0 mm
21:49 11.5 °C 6.6 °C 1022.2 hPa Calm     72% 0 mm
21:54 11.4 °C 6.5 °C 1022.6 hPa Calm     72% 0 mm
21:59 11.4 °C 6.6 °C 1022.6 hPa Calm     72% 0 mm
22:04 11.6 °C 6.7 °C 1022.9 hPa Calm     72% 0 mm
22:09 11.4 °C 6.6 °C 1022.9 hPa Calm     72% 0 mm
22:14 11.2 °C 6.3 °C 1022.9 hPa Calm     72% 0 mm
22:19 11 °C 6.3 °C 1022.9 hPa Calm     73% 0 mm
22:24 10.8 °C 6.4 °C 1022.9 hPa Calm     74% 0 mm
22:29 10.6 °C 6.3 °C 1022.9 hPa Calm     75% 0 mm
22:34 10.7 °C 6.4 °C 1022.9 hPa Calm     75% 0 mm
22:39 10.8 °C 6.6 °C 1022.9 hPa Calm     75% 0 mm
22:44 10.9 °C 6.7 °C 1022.6 hPa Calm     75% 0 mm
22:49 11 °C 6.7 °C 1022.6 hPa Calm     75% 0 mm
22:54 10.9 °C 6.7 °C 1022.6 hPa Calm     75% 0 mm
22:59 10.8 °C 6.6 °C 1022.6 hPa Calm     75% 0 mm
23:04 10.8 °C 6.7 °C 1022.6 hPa Calm     76% 0 mm
23:09 10.7 °C 6.6 °C 1022.6 hPa Calm     76% 0 mm
23:24 10.3 °C 6.5 °C 1022.6 hPa Calm     77% 0 mm
23:29 10.3 °C 6.4 °C 1022.9 hPa Calm     77% 0 mm
23:34 10.2 °C 6.5 °C 1022.9 hPa Calm     78% 0 mm
23:39 10.2 °C 6.5 °C 1022.9 hPa Calm     78% 0 mm
23:44 10.1 °C 6.4 °C 1022.9 hPa Calm     78% 0 mm
23:49 10.1 °C 6.4 °C 1022.9 hPa Calm     78% 0 mm
23:54 10 °C 6.3 °C 1022.9 hPa Calm     78% 0 mm
23:59 9.8 °C 6.3 °C 1022.9 hPa Calm     79% 0 mm
Buffalo, New York, USA
Compliments of Weather Underground - 2.5 mb